createdAt,value
2019-05-22T00:01:02.609Z,7.40
2019-05-22T00:03:54.216Z,6.35
2019-05-22T00:06:35.760Z,6.05
2019-05-22T00:09:21.840Z,6.67
2019-05-22T00:12:00.815Z,6.47
2019-05-22T00:14:38.607Z,6.47
2019-05-22T00:17:17.007Z,6.72
2019-05-22T00:19:53.698Z,6.87
2019-05-22T00:22:36.508Z,6.40
2019-05-22T00:25:20.549Z,6.37
2019-05-22T00:27:57.960Z,6.45
2019-05-22T00:30:38.211Z,6.53
2019-05-22T00:33:15.491Z,6.87
2019-05-22T00:35:54.213Z,7.33
2019-05-22T00:38:33.183Z,7.42
2019-05-22T00:41:11.976Z,4.92
2019-05-22T00:43:50.531Z,6.20
2019-05-22T00:46:27.513Z,5.50
2019-05-22T00:49:05.215Z,5.53
2019-05-22T00:51:58.647Z,5.85
2019-05-22T00:54:59.883Z,5.05
2019-05-22T00:57:48.886Z,5.03
2019-05-22T01:00:34.945Z,5.03
2019-05-22T01:03:18.524Z,4.33
2019-05-22T01:05:56.160Z,4.60
2019-05-22T01:08:35.179Z,4.40
2019-05-22T01:11:14.884Z,4.30
2019-05-22T01:13:52.670Z,4.75
2019-05-22T01:16:31.163Z,4.92
2019-05-22T01:19:08.913Z,5.40
2019-05-22T01:21:46.355Z,4.53
2019-05-22T01:24:24.178Z,5.20
2019-05-22T01:27:01.702Z,5.00
2019-05-22T01:29:38.562Z,6.65
2019-05-22T01:32:26.251Z,6.12
2019-05-22T01:35:02.687Z,5.25
2019-05-22T01:37:41.241Z,4.80
2019-05-22T01:40:24.223Z,6.08
2019-05-22T01:43:04.446Z,5.90
2019-05-22T01:45:43.693Z,4.78
2019-05-22T01:48:21.673Z,4.33
2019-05-22T01:51:03.215Z,4.75
2019-05-22T01:53:45.137Z,4.60
2019-05-22T01:56:22.255Z,4.90
2019-05-22T01:59:00.126Z,4.90
2019-05-22T02:01:36.659Z,5.37
2019-05-22T02:04:14.915Z,5.28
2019-05-22T02:06:54.331Z,4.80
2019-05-22T02:09:35.338Z,5.12
2019-05-22T02:12:28.596Z,5.17
2019-05-22T02:15:06.405Z,6.03
2019-05-22T02:17:43.154Z,4.92
2019-05-22T02:20:21.016Z,5.17
2019-05-22T02:22:59.142Z,4.97
2019-05-22T02:25:37.327Z,5.30
2019-05-22T02:28:16.102Z,5.75
2019-05-22T02:30:54.031Z,5.50
2019-05-22T02:33:31.097Z,5.58
2019-05-22T02:36:08.146Z,5.55
2019-05-22T02:38:45.838Z,5.00
2019-05-22T02:41:23.045Z,5.50
2019-05-22T02:43:59.966Z,5.20
2019-05-22T02:46:36.336Z,5.05
2019-05-22T02:49:15.643Z,4.50
2019-05-22T02:51:54.026Z,5.03
2019-05-22T02:54:32.794Z,5.83
2019-05-22T02:57:12.289Z,5.53
2019-05-22T02:59:49.793Z,6.12
2019-05-22T03:02:26.811Z,5.25
2019-05-22T03:05:11.141Z,5.75
2019-05-22T03:07:48.315Z,5.55
2019-05-22T03:10:26.499Z,5.53
2019-05-22T03:13:03.984Z,5.37
2019-05-22T03:15:40.852Z,5.20
2019-05-22T03:18:18.313Z,5.03
2019-05-22T03:20:55.579Z,4.50
2019-05-22T03:23:41.818Z,5.10
2019-05-22T03:26:19.942Z,5.80
2019-05-22T03:28:56.293Z,5.87
2019-05-22T03:31:32.839Z,5.40
2019-05-22T03:34:10.945Z,5.40
2019-05-22T03:36:48.732Z,4.83
2019-05-22T03:39:26.849Z,4.60
2019-05-22T03:42:03.137Z,5.20
2019-05-22T03:44:40.437Z,5.10
2019-05-22T03:47:16.907Z,5.50
2019-05-22T03:49:58.210Z,4.85
2019-05-22T03:52:37.831Z,4.70
2019-05-22T03:55:17.770Z,5.35
2019-05-22T03:57:55.659Z,4.42
2019-05-22T04:00:33.857Z,5.08
2019-05-22T04:03:12.957Z,4.95
2019-05-22T04:05:53.530Z,4.62
2019-05-22T04:08:32.568Z,4.33
2019-05-22T04:11:14.530Z,5.47
2019-05-22T04:13:53.700Z,4.83
2019-05-22T04:16:32.878Z,4.40
2019-05-22T04:19:11.529Z,4.90
2019-05-22T04:21:51.289Z,4.65
2019-05-22T04:24:29.779Z,4.62
2019-05-22T04:27:09.011Z,4.65
2019-05-22T04:29:47.631Z,4.17
2019-05-22T04:32:39.245Z,4.53
2019-05-22T04:35:21.958Z,4.50
2019-05-22T04:38:00.978Z,4.47
2019-05-22T04:41:03.058Z,4.28
2019-05-22T04:43:41.656Z,4.20
2019-05-22T04:46:19.944Z,4.42
2019-05-22T04:48:59.031Z,4.47
2019-05-22T04:51:37.468Z,5.72
2019-05-22T04:54:15.720Z,5.50
2019-05-22T04:56:54.964Z,4.80
2019-05-22T04:59:34.903Z,4.40
2019-05-22T05:02:14.463Z,3.92
2019-05-22T05:04:53.688Z,4.50
2019-05-22T05:07:33.038Z,3.90
2019-05-22T05:10:11.330Z,4.40
2019-05-22T05:12:49.880Z,3.87
2019-05-22T05:15:28.571Z,4.20
2019-05-22T05:18:07.123Z,3.95
2019-05-22T05:20:46.000Z,4.45
2019-05-22T05:23:24.218Z,4.80
2019-05-22T05:26:03.283Z,4.45
2019-05-22T05:28:42.950Z,4.80
2019-05-22T05:31:22.289Z,4.83
2019-05-22T05:34:25.189Z,5.15
2019-05-22T05:37:04.848Z,5.65
2019-05-22T05:40:36.212Z,5.33
2019-05-22T05:43:17.053Z,5.30
2019-05-22T05:45:56.276Z,5.50
2019-05-22T05:48:34.770Z,4.90
2019-05-22T05:51:47.412Z,4.80
2019-05-22T05:54:24.641Z,4.72
2019-05-22T05:57:05.926Z,4.60
2019-05-22T05:59:43.651Z,5.00
2019-05-22T06:02:21.902Z,4.70
2019-05-22T06:04:58.567Z,5.37
2019-05-22T06:07:36.593Z,4.95
2019-05-22T06:10:37.959Z,5.20
2019-05-22T06:13:16.177Z,5.10
2019-05-22T06:17:03.160Z,4.92
2019-05-22T06:19:41.095Z,4.60
2019-05-22T06:22:19.652Z,4.95
2019-05-22T06:25:05.471Z,4.95
2019-05-22T06:28:02.901Z,5.12
2019-05-22T06:30:50.207Z,4.80
2019-05-22T06:33:40.109Z,4.83
2019-05-22T06:36:22.707Z,4.90
2019-05-22T06:39:14.215Z,5.00
2019-05-22T06:41:51.571Z,4.90
2019-05-22T06:44:37.480Z,4.58
2019-05-22T06:47:17.338Z,4.60
2019-05-22T06:50:05.250Z,4.97
2019-05-22T06:52:42.354Z,4.80
2019-05-22T06:55:18.951Z,4.87
2019-05-22T06:57:55.495Z,4.67
2019-05-22T07:00:32.076Z,4.92
2019-05-22T07:03:09.381Z,5.12
2019-05-22T07:05:45.908Z,5.20
2019-05-22T07:08:23.146Z,5.10
2019-05-22T07:11:00.581Z,5.08
2019-05-22T07:13:37.375Z,5.22
2019-05-22T07:16:13.770Z,5.25
2019-05-22T07:18:50.135Z,5.47
2019-05-22T07:21:33.655Z,5.10
2019-05-22T07:24:06.808Z,5.33
2019-05-22T07:26:44.543Z,5.65
2019-05-22T07:29:22.455Z,5.28
2019-05-22T07:32:02.312Z,5.70
2019-05-22T07:34:39.675Z,5.75
2019-05-22T07:37:16.404Z,6.17
2019-05-22T07:39:53.538Z,5.90
2019-05-22T07:42:30.539Z,5.40
2019-05-22T07:45:07.241Z,6.03
2019-05-22T07:47:43.854Z,5.58
2019-05-22T07:50:21.334Z,6.03
2019-05-22T07:52:58.444Z,5.50
2019-05-22T07:55:36.779Z,5.03
2019-05-22T07:58:24.129Z,5.90
2019-05-22T08:01:02.036Z,5.10
2019-05-22T08:03:39.589Z,5.37
2019-05-22T08:06:16.924Z,4.83
2019-05-22T08:08:55.319Z,4.92
2019-05-22T08:11:31.852Z,6.70
2019-05-22T08:14:08.349Z,5.12
2019-05-22T08:16:45.038Z,5.62
2019-05-22T08:19:21.546Z,4.87
2019-05-22T08:22:06.794Z,5.92
2019-05-22T08:24:37.082Z,4.87
2019-05-22T08:27:15.553Z,5.33
2019-05-22T08:29:52.268Z,4.65
2019-05-22T08:32:30.111Z,5.20
2019-05-22T08:35:07.558Z,5.53
2019-05-22T08:37:44.930Z,5.47
2019-05-22T08:40:22.431Z,5.33
2019-05-22T08:42:59.403Z,5.30
2019-05-22T08:45:36.415Z,5.35
2019-05-22T08:48:13.620Z,5.20
2019-05-22T08:50:50.926Z,5.70
2019-05-22T08:53:44.472Z,5.30
2019-05-22T08:56:09.104Z,5.35
2019-05-22T08:58:47.450Z,6.00
2019-05-22T09:01:24.477Z,5.30
2019-05-22T09:04:01.294Z,5.62
2019-05-22T09:06:38.257Z,5.55
2019-05-22T09:09:14.662Z,5.12
2019-05-22T09:11:51.372Z,5.78
2019-05-22T09:14:28.407Z,5.28
2019-05-22T09:17:04.900Z,5.50
2019-05-22T09:19:41.864Z,5.92
2019-05-22T09:22:19.012Z,6.12
2019-05-22T09:24:56.061Z,5.53
2019-05-22T09:27:32.853Z,6.33
2019-05-22T09:30:10.030Z,5.45
2019-05-22T09:32:47.630Z,6.03
2019-05-22T09:35:26.834Z,5.87
2019-05-22T09:38:03.214Z,5.75
2019-05-22T09:40:40.176Z,6.58
2019-05-22T09:43:16.839Z,5.80
2019-05-22T09:45:53.748Z,6.22
2019-05-22T09:48:30.382Z,5.65
2019-05-22T09:51:07.520Z,6.25
2019-05-22T09:53:44.692Z,5.42
2019-05-22T09:56:22.242Z,6.10
2019-05-22T09:58:58.915Z,6.12
2019-05-22T10:01:35.367Z,6.35
2019-05-22T10:04:11.871Z,5.75
2019-05-22T10:06:49.330Z,6.12
2019-05-22T10:09:26.641Z,5.70
2019-05-22T10:12:04.237Z,5.53
2019-05-22T10:14:41.128Z,6.00
2019-05-22T10:17:18.547Z,6.35
2019-05-22T10:19:55.854Z,5.75
2019-05-22T10:22:35.823Z,5.92
2019-05-22T10:25:16.363Z,6.30
2019-05-22T10:27:52.153Z,6.08
2019-05-22T10:30:30.734Z,6.20
2019-05-22T10:33:07.805Z,6.03
2019-05-22T10:35:44.680Z,6.15
2019-05-22T10:38:21.072Z,6.35
2019-05-22T10:40:59.368Z,5.95
2019-05-22T10:43:35.189Z,5.87
2019-05-22T10:46:12.764Z,5.70
2019-05-22T10:48:49.926Z,6.33
2019-05-22T10:51:26.505Z,6.60
2019-05-22T10:54:03.371Z,6.40
2019-05-22T10:56:40.035Z,6.87
2019-05-22T10:59:16.815Z,5.90
2019-05-22T11:01:53.488Z,6.42
2019-05-22T11:04:32.114Z,6.08
2019-05-22T11:07:09.271Z,5.87
2019-05-22T11:09:46.274Z,6.17
2019-05-22T11:12:23.197Z,6.50
2019-05-22T11:14:59.731Z,6.40
2019-05-22T11:17:36.809Z,6.92
2019-05-22T11:20:15.169Z,6.37
2019-05-22T11:22:52.903Z,6.33
2019-05-22T11:25:29.898Z,7.55
2019-05-22T11:28:06.397Z,6.65
2019-05-22T11:30:43.038Z,6.60
2019-05-22T11:33:20.001Z,6.50
2019-05-22T11:35:56.430Z,7.08
2019-05-22T11:38:32.905Z,6.62
2019-05-22T11:41:10.122Z,7.60
2019-05-22T11:43:47.104Z,7.90
2019-05-22T11:46:24.006Z,7.17
2019-05-22T11:49:00.476Z,7.62
2019-05-22T11:51:37.064Z,8.33
2019-05-22T11:54:13.756Z,9.38
2019-05-22T11:56:51.356Z,10.32
2019-05-22T11:59:28.702Z,10.88
2019-05-22T12:02:05.698Z,13.10
2019-05-22T12:04:47.804Z,12.18
2019-05-22T12:07:20.933Z,11.95
2019-05-22T12:09:59.364Z,11.25
2019-05-22T12:12:35.957Z,10.58
2019-05-22T12:15:13.326Z,9.63
2019-05-22T12:17:49.999Z,8.83
2019-05-22T12:20:28.870Z,9.88
2019-05-22T12:23:09.959Z,9.30
2019-05-22T12:25:48.636Z,9.63
2019-05-22T12:28:25.554Z,9.23
2019-05-22T12:31:03.051Z,9.40
2019-05-22T12:33:39.670Z,9.63
2019-05-22T12:36:16.722Z,9.53
2019-05-22T12:38:53.717Z,9.70
2019-05-22T12:41:32.905Z,8.98
2019-05-22T12:44:09.412Z,10.28
2019-05-22T12:46:46.514Z,9.20
2019-05-22T12:49:23.474Z,10.48
2019-05-22T12:52:00.370Z,10.13
2019-05-22T12:54:46.998Z,9.75
2019-05-22T12:57:15.813Z,9.30
2019-05-22T12:59:52.942Z,9.58
2019-05-22T13:02:30.429Z,10.58
2019-05-22T13:05:07.548Z,11.08
2019-05-22T13:07:45.046Z,10.28
2019-05-22T13:10:24.221Z,9.83
2019-05-22T13:13:00.786Z,9.75
2019-05-22T13:15:40.217Z,11.80
2019-05-22T13:18:18.906Z,10.88
2019-05-22T13:20:56.418Z,12.10
2019-05-22T13:23:37.040Z,10.43
2019-05-22T13:26:13.998Z,11.43
2019-05-22T13:28:51.492Z,10.65
2019-05-22T13:31:28.910Z,11.65
2019-05-22T13:34:05.895Z,11.85
2019-05-22T13:36:43.106Z,11.90
2019-05-22T13:39:21.375Z,12.90
2019-05-22T13:41:58.569Z,13.22
2019-05-22T13:44:35.495Z,14.13
2019-05-22T13:47:13.291Z,12.82
2019-05-22T13:49:51.521Z,12.03
2019-05-22T13:52:28.485Z,11.70
2019-05-22T13:55:06.265Z,11.35
2019-05-22T13:57:44.254Z,11.18
2019-05-22T14:00:23.178Z,10.80
2019-05-22T14:02:59.756Z,10.90
2019-05-22T14:05:36.668Z,10.23
2019-05-22T14:08:14.575Z,10.13
2019-05-22T14:10:51.618Z,10.35
2019-05-22T14:13:29.331Z,11.45
2019-05-22T14:16:05.806Z,11.18
2019-05-22T14:18:42.451Z,10.60
2019-05-22T14:21:19.576Z,11.12
2019-05-22T14:23:56.195Z,10.75
2019-05-22T14:26:33.005Z,11.35
2019-05-22T14:29:09.677Z,9.83
2019-05-22T14:31:46.377Z,11.10
2019-05-22T14:34:23.297Z,10.98
2019-05-22T14:37:02.078Z,11.30
2019-05-22T14:39:40.512Z,11.70
2019-05-22T14:42:18.126Z,11.43
2019-05-22T14:44:55.137Z,11.43
2019-05-22T14:47:31.824Z,11.43
2019-05-22T14:50:11.178Z,12.07
2019-05-22T14:52:48.273Z,11.30
2019-05-22T14:55:24.784Z,10.88
2019-05-22T14:58:03.154Z,11.33
2019-05-22T15:00:40.086Z,10.50
2019-05-22T15:03:17.187Z,9.53
2019-05-22T15:05:53.513Z,10.50
2019-05-22T15:08:30.156Z,9.00
2019-05-22T15:11:07.874Z,8.65
2019-05-22T15:13:43.693Z,9.90
2019-05-22T15:16:20.229Z,8.95
2019-05-22T15:18:56.565Z,8.15
2019-05-22T15:21:32.888Z,8.65
2019-05-22T15:24:10.742Z,9.05
2019-05-22T15:26:47.176Z,8.48
2019-05-22T15:29:23.986Z,8.63
2019-05-22T15:32:00.529Z,8.90
2019-05-22T15:34:37.235Z,9.55
2019-05-22T15:37:16.350Z,8.90
2019-05-22T15:39:52.972Z,8.93
2019-05-22T15:42:44.181Z,8.70
2019-05-22T15:45:22.965Z,9.00
2019-05-22T15:48:02.828Z,9.43
2019-05-22T15:50:41.636Z,9.63
2019-05-22T15:53:18.781Z,10.35
2019-05-22T15:55:56.780Z,10.03
2019-05-22T15:58:36.102Z,9.38
2019-05-22T16:01:15.312Z,8.80
2019-05-22T16:03:53.200Z,8.60
2019-05-22T16:06:32.993Z,9.68
2019-05-22T16:09:13.660Z,9.20
2019-05-22T16:11:54.246Z,10.20
2019-05-22T16:14:34.443Z,9.63
2019-05-22T16:17:11.198Z,9.70
2019-05-22T16:19:49.381Z,9.63
2019-05-22T16:22:26.344Z,10.58
2019-05-22T16:25:04.181Z,9.88
2019-05-22T16:27:43.969Z,9.15
2019-05-22T16:30:21.730Z,10.15
2019-05-22T16:32:59.313Z,10.78
2019-05-22T16:35:37.305Z,10.43
2019-05-22T16:38:15.067Z,12.58
2019-05-22T16:40:52.027Z,12.05
2019-05-22T16:43:47.402Z,13.08
2019-05-22T16:46:07.354Z,13.32
2019-05-22T16:48:45.229Z,12.80
2019-05-22T16:51:23.168Z,11.08
2019-05-22T16:54:08.578Z,11.85
2019-05-22T16:56:46.358Z,11.03
2019-05-22T16:59:24.823Z,11.45
2019-05-22T17:02:02.862Z,11.73
2019-05-22T17:04:39.931Z,12.58
2019-05-22T17:07:17.581Z,12.65
2019-05-22T17:09:56.462Z,12.90
2019-05-22T17:12:34.857Z,13.25
2019-05-22T17:15:12.873Z,13.35
2019-05-22T17:17:49.644Z,12.65
2019-05-22T17:20:28.846Z,13.32
2019-05-22T17:23:05.882Z,13.53
2019-05-22T17:25:44.151Z,13.15
2019-05-22T17:28:21.687Z,13.55
2019-05-22T17:30:59.918Z,13.25
2019-05-22T17:33:36.608Z,12.35
2019-05-22T17:36:13.375Z,13.50
2019-05-22T17:38:49.666Z,13.65
2019-05-22T17:41:29.049Z,13.10
2019-05-22T17:44:07.640Z,13.85
2019-05-22T17:46:47.045Z,12.85
2019-05-22T17:49:23.929Z,12.65
2019-05-22T17:52:01.397Z,12.35
2019-05-22T17:54:40.813Z,13.85
2019-05-22T17:57:18.593Z,13.15
2019-05-22T17:59:55.753Z,13.53
2019-05-22T18:02:36.686Z,14.23
2019-05-22T18:05:15.467Z,15.20
2019-05-22T18:07:52.789Z,14.30
2019-05-22T18:10:30.776Z,14.68
2019-05-22T18:13:07.939Z,14.78
2019-05-22T18:15:44.868Z,13.75
2019-05-22T18:18:21.843Z,15.83
2019-05-22T18:21:00.093Z,19.27
2019-05-22T18:23:37.345Z,20.10
2019-05-22T18:26:14.056Z,21.00
2019-05-22T18:28:50.443Z,20.02
2019-05-22T18:31:26.986Z,17.45
2019-05-22T18:34:04.165Z,18.30
2019-05-22T18:36:40.651Z,21.02
2019-05-22T18:39:17.752Z,21.77
2019-05-22T18:41:54.037Z,23.67
2019-05-22T18:44:31.131Z,20.85
2019-05-22T18:47:09.446Z,17.92
2019-05-22T18:49:46.257Z,17.73
2019-05-22T18:52:38.256Z,16.80
2019-05-22T18:55:01.981Z,18.67
2019-05-22T18:57:39.590Z,15.03
2019-05-22T19:00:16.629Z,15.78
2019-05-22T19:02:53.549Z,14.90
2019-05-22T19:05:33.080Z,15.90
2019-05-22T19:08:09.627Z,15.63
2019-05-22T19:10:46.282Z,16.00
2019-05-22T19:13:23.304Z,15.35
2019-05-22T19:15:59.968Z,15.93
2019-05-22T19:18:36.857Z,15.95
2019-05-22T19:21:13.396Z,16.97
2019-05-22T19:23:49.874Z,16.02
2019-05-22T19:26:27.355Z,18.20
2019-05-22T19:29:04.198Z,17.15
2019-05-22T19:31:40.849Z,18.67
2019-05-22T19:34:17.652Z,18.23
2019-05-22T19:36:54.336Z,19.80
2019-05-22T19:39:30.953Z,20.85
2019-05-22T19:42:09.195Z,21.05
2019-05-22T19:44:46.120Z,19.95
2019-05-22T19:47:24.248Z,17.48
2019-05-22T19:50:01.482Z,18.73
2019-05-22T19:52:42.834Z,20.97
2019-05-22T19:55:20.235Z,20.55
2019-05-22T19:57:57.512Z,19.92
2019-05-22T20:00:35.060Z,21.73
2019-05-22T20:03:11.969Z,18.67
2019-05-22T20:05:48.756Z,16.95
2019-05-22T20:08:25.334Z,17.20
2019-05-22T20:11:02.197Z,17.70
2019-05-22T20:13:39.463Z,18.85
2019-05-22T20:16:16.414Z,17.55
2019-05-22T20:18:54.334Z,18.12
2019-05-22T20:21:31.069Z,17.90
2019-05-22T20:24:07.737Z,17.48
2019-05-22T20:26:44.159Z,18.23
2019-05-22T20:29:21.266Z,15.83
2019-05-22T20:31:57.928Z,17.90
2019-05-22T20:34:35.704Z,16.97
2019-05-22T20:37:12.641Z,17.40
2019-05-22T20:39:49.270Z,18.20
2019-05-22T20:42:26.350Z,19.00
2019-05-22T20:45:03.369Z,19.75
2019-05-22T20:47:43.425Z,19.17
2019-05-22T20:50:21.453Z,17.10
2019-05-22T20:52:57.991Z,18.10
2019-05-22T20:55:35.030Z,18.15
2019-05-22T20:58:13.152Z,16.55
2019-05-22T21:00:53.255Z,17.20
2019-05-22T21:03:30.985Z,14.58
2019-05-22T21:06:09.964Z,14.73
2019-05-22T21:08:48.624Z,14.55
2019-05-22T21:11:27.740Z,13.25
2019-05-22T21:14:05.066Z,13.48
2019-05-22T21:16:42.602Z,14.03
2019-05-22T21:19:18.991Z,13.65
2019-05-22T21:21:57.682Z,13.03
2019-05-22T21:24:36.272Z,14.43
2019-05-22T21:27:13.129Z,14.00
2019-05-22T21:29:51.057Z,14.03
2019-05-22T21:32:28.970Z,14.55
2019-05-22T21:35:06.639Z,14.75
2019-05-22T21:37:43.845Z,14.28
2019-05-22T21:40:22.509Z,14.80
2019-05-22T21:43:00.180Z,14.90
2019-05-22T21:45:37.556Z,16.95
2019-05-22T21:48:15.254Z,16.30
2019-05-22T21:50:52.539Z,13.53
2019-05-22T21:53:29.252Z,14.93
2019-05-22T21:56:06.577Z,17.42
2019-05-22T21:58:43.656Z,16.23
2019-05-22T22:01:37.196Z,18.02
2019-05-22T22:04:31.679Z,18.25
2019-05-22T22:07:09.345Z,18.73
2019-05-22T22:09:46.183Z,18.20
2019-05-22T22:12:26.494Z,19.15
2019-05-22T22:15:03.818Z,17.95
2019-05-22T22:17:44.167Z,17.62
2019-05-22T22:20:21.797Z,17.50
2019-05-22T22:22:58.296Z,17.05
2019-05-22T22:25:35.403Z,17.75
2019-05-22T22:28:14.242Z,18.17
2019-05-22T22:30:54.165Z,17.50
2019-05-22T22:33:33.196Z,18.12
2019-05-22T22:36:11.323Z,20.37
2019-05-22T22:38:48.464Z,20.00
2019-05-22T22:41:25.513Z,19.98
2019-05-22T22:44:02.708Z,21.82
2019-05-22T22:46:44.999Z,24.00
2019-05-22T22:49:22.621Z,23.98
2019-05-22T22:51:59.967Z,23.67
2019-05-22T22:54:37.200Z,24.92
2019-05-22T22:57:14.991Z,23.87
2019-05-22T22:59:51.952Z,25.30
2019-05-22T23:02:32.650Z,25.43
2019-05-22T23:05:11.618Z,25.00
2019-05-22T23:07:48.905Z,23.47
2019-05-22T23:10:27.090Z,20.90
2019-05-22T23:13:04.899Z,21.50
2019-05-22T23:15:41.370Z,21.73
2019-05-22T23:18:29.565Z,21.23
2019-05-22T23:21:01.976Z,19.32
2019-05-22T23:23:34.259Z,19.20
2019-05-22T23:26:12.757Z,19.20
2019-05-22T23:28:49.919Z,17.07
2019-05-22T23:31:27.647Z,22.22
2019-05-22T23:34:04.606Z,18.00
2019-05-22T23:36:42.013Z,16.82
2019-05-22T23:39:20.079Z,16.95
2019-05-22T23:42:00.099Z,16.23
2019-05-22T23:44:39.514Z,16.82
2019-05-22T23:47:16.537Z,14.60
2019-05-22T23:49:53.038Z,15.72
2019-05-22T23:52:30.033Z,16.25
2019-05-22T23:55:08.460Z,14.95
2019-05-22T23:57:44.564Z,17.73
